sensor_id;sensor_type;location;lat;lon;timestamp;pressure;altitude;pressure_sealevel;temperature;humidity
35619;BME280;21743;55.786;37.168;2022-09-09T00:00:19;100411.38;;;7.05;73.07
35619;BME280;21743;55.786;37.168;2022-09-09T00:03:02;100414.50;;;6.98;72.97
35619;BME280;21743;55.786;37.168;2022-09-09T00:08:23;100419.44;;;6.88;72.84
35619;BME280;21743;55.786;37.168;2022-09-09T00:10:58;100421.34;;;6.86;72.84
35619;BME280;21743;55.786;37.168;2022-09-09T00:13:40;100419.25;;;6.79;73.12
35619;BME280;21743;55.786;37.168;2022-09-09T00:16:24;100429.91;;;6.74;72.96
35619;BME280;21743;55.786;37.168;2022-09-09T00:19:19;100421.63;;;6.69;72.89
35619;BME280;21743;55.786;37.168;2022-09-09T00:22:31;100426.81;;;6.69;73.08
35619;BME280;21743;55.786;37.168;2022-09-09T00:25:29;100425.88;;;6.70;72.73
35619;BME280;21743;55.786;37.168;2022-09-09T00:27:48;100429.59;;;6.66;72.96
35619;BME280;21743;55.786;37.168;2022-09-09T00:30:23;100429.06;;;6.61;72.77
35619;BME280;21743;55.786;37.168;2022-09-09T00:32:52;100434.13;;;6.62;73.05
35619;BME280;21743;55.786;37.168;2022-09-09T00:35:29;100432.47;;;6.61;72.90
35619;BME280;21743;55.786;37.168;2022-09-09T00:38:01;100433.50;;;6.59;73.13
35619;BME280;21743;55.786;37.168;2022-09-09T00:40:35;100439.41;;;6.61;73.00
35619;BME280;21743;55.786;37.168;2022-09-09T00:48:38;100439.41;;;6.61;73.56
35619;BME280;21743;55.786;37.168;2022-09-09T00:51:15;100440.78;;;6.66;73.29
35619;BME280;21743;55.786;37.168;2022-09-09T00:54:03;100449.16;;;6.70;73.34
35619;BME280;21743;55.786;37.168;2022-09-09T00:56:46;100457.03;;;6.68;73.06
35619;BME280;21743;55.786;37.168;2022-09-09T00:59:43;100444.38;;;6.64;73.38
35619;BME280;21743;55.786;37.168;2022-09-09T01:02:19;100446.97;;;6.64;73.34
35619;BME280;21743;55.786;37.168;2022-09-09T01:04:47;100454.53;;;6.67;73.47
35619;BME280;21743;55.786;37.168;2022-09-09T01:07:17;100454.44;;;6.68;73.54
35619;BME280;21743;55.786;37.168;2022-09-09T01:09:56;100455.47;;;6.66;73.48
35619;BME280;21743;55.786;37.168;2022-09-09T01:12:33;100465.72;;;6.67;73.56
35619;BME280;21743;55.786;37.168;2022-09-09T01:15:16;100454.34;;;6.70;73.39
35619;BME280;21743;55.786;37.168;2022-09-09T01:18:10;100460.34;;;6.70;73.29
35619;BME280;21743;55.786;37.168;2022-09-09T01:26:39;100473.94;;;6.60;73.55
35619;BME280;21743;55.786;37.168;2022-09-09T01:29:15;100476.75;;;6.57;73.37
35619;BME280;21743;55.786;37.168;2022-09-09T01:31:53;100475.72;;;6.59;73.57
35619;BME280;21743;55.786;37.168;2022-09-09T01:34:20;100477.19;;;6.63;73.60
35619;BME280;21743;55.786;37.168;2022-09-09T01:36:57;100472.84;;;6.64;73.36
35619;BME280;21743;55.786;37.168;2022-09-09T01:39:26;100470.34;;;6.62;73.53
35619;BME280;21743;55.786;37.168;2022-09-09T01:42:00;100476.25;;;6.64;73.85
35619;BME280;21743;55.786;37.168;2022-09-09T01:44:27;100485.16;;;6.73;73.75
35619;BME280;21743;55.786;37.168;2022-09-09T01:46:53;100474.94;;;6.72;73.58
35619;BME280;21743;55.786;37.168;2022-09-09T01:49:21;100493.25;;;6.81;73.99
35619;BME280;21743;55.786;37.168;2022-09-09T01:51:53;100493.16;;;6.83;73.76
35619;BME280;21743;55.786;37.168;2022-09-09T01:54:29;100496.56;;;6.83;73.80
35619;BME280;21743;55.786;37.168;2022-09-09T01:57:09;100500.19;;;6.81;73.67
35619;BME280;21743;55.786;37.168;2022-09-09T02:02:17;100495.84;;;6.81;73.92
35619;BME280;21743;55.786;37.168;2022-09-09T02:04:58;100497.41;;;6.84;73.88
35619;BME280;21743;55.786;37.168;2022-09-09T02:07:40;100499.66;;;6.88;73.51
35619;BME280;21743;55.786;37.168;2022-09-09T02:10:23;100502.38;;;6.87;74.01
35619;BME280;21743;55.786;37.168;2022-09-09T02:13:07;100500.81;;;6.84;73.77
35619;BME280;21743;55.786;37.168;2022-09-09T02:18:12;100503.91;;;6.89;73.57
35619;BME280;21743;55.786;37.168;2022-09-09T02:20:40;100501.31;;;6.89;73.95
35619;BME280;21743;55.786;37.168;2022-09-09T02:23:08;100499.16;;;6.83;73.48
35619;BME280;21743;55.786;37.168;2022-09-09T02:25:37;100510.31;;;6.84;73.55
35619;BME280;21743;55.786;37.168;2022-09-09T02:28:14;100515.50;;;6.84;73.90
35619;BME280;21743;55.786;37.168;2022-09-09T02:30:42;100516.13;;;6.87;73.82
35619;BME280;21743;55.786;37.168;2022-09-09T02:33:14;100520.47;;;6.87;73.43
35619;BME280;21743;55.786;37.168;2022-09-09T02:35:45;100522.63;;;6.80;73.62
35619;BME280;21743;55.786;37.168;2022-09-09T02:38:15;100511.84;;;6.74;73.80
35619;BME280;21743;55.786;37.168;2022-09-09T02:40:51;100521.50;;;6.72;73.78
35619;BME280;21743;55.786;37.168;2022-09-09T02:43:17;100525.00;;;6.70;73.75
35619;BME280;21743;55.786;37.168;2022-09-09T02:48:52;100527.25;;;6.62;73.62
35619;BME280;21743;55.786;37.168;2022-09-09T02:51:33;100528.50;;;6.57;73.62
35619;BME280;21743;55.786;37.168;2022-09-09T02:56:32;100533.41;;;6.47;73.16
35619;BME280;21743;55.786;37.168;2022-09-09T02:59:04;100524.41;;;6.40;73.40
35619;BME280;21743;55.786;37.168;2022-09-09T03:01:30;100538.97;;;6.41;73.09
35619;BME280;21743;55.786;37.168;2022-09-09T03:03:55;100542.59;;;6.39;73.23
35619;BME280;21743;55.786;37.168;2022-09-09T03:06:22;100533.75;;;6.28;73.31
35619;BME280;21743;55.786;37.168;2022-09-09T03:08:56;100536.41;;;6.27;73.17
35619;BME280;21743;55.786;37.168;2022-09-09T03:11:27;100542.09;;;6.19;72.88
35619;BME280;21743;55.786;37.168;2022-09-09T03:13:54;100544.94;;;6.15;73.15
35619;BME280;21743;55.786;37.168;2022-09-09T03:16:23;100551.78;;;6.16;73.00
35619;BME280;21743;55.786;37.168;2022-09-09T03:18:51;100545.63;;;6.04;72.91
35619;BME280;21743;55.786;37.168;2022-09-09T03:21:19;100560.03;;;6.08;72.99
35619;BME280;21743;55.786;37.168;2022-09-09T03:23:46;100555.31;;;6.00;72.61
35619;BME280;21743;55.786;37.168;2022-09-09T03:26:12;100558.19;;;5.96;73.19
35619;BME280;21743;55.786;37.168;2022-09-09T03:28:44;100555.59;;;5.96;72.90
35619;BME280;21743;55.786;37.168;2022-09-09T03:31:12;100560.13;;;5.92;73.07
35619;BME280;21743;55.786;37.168;2022-09-09T03:33:40;100555.31;;;5.86;73.24
35619;BME280;21743;55.786;37.168;2022-09-09T03:36:08;100559.72;;;5.84;73.28
35619;BME280;21743;55.786;37.168;2022-09-09T03:38:34;100560.66;;;5.83;73.05
35619;BME280;21743;55.786;37.168;2022-09-09T03:41:00;100564.91;;;5.84;73.01
35619;BME280;21743;55.786;37.168;2022-09-09T03:43:29;100567.47;;;5.84;73.06
35619;BME280;21743;55.786;37.168;2022-09-09T03:45:55;100565.63;;;5.86;73.40
35619;BME280;21743;55.786;37.168;2022-09-09T03:48:24;100575.81;;;5.89;73.48
35619;BME280;21743;55.786;37.168;2022-09-09T03:50:52;100574.50;;;5.96;73.49
35619;BME280;21743;55.786;37.168;2022-09-09T03:53:20;100568.88;;;6.04;73.30
35619;BME280;21743;55.786;37.168;2022-09-09T03:55:49;100573.56;;;6.12;73.05
35619;BME280;21743;55.786;37.168;2022-09-09T03:58:18;100574.22;;;6.15;73.07
35619;BME280;21743;55.786;37.168;2022-09-09T04:00:53;100575.69;;;6.19;73.06
35619;BME280;21743;55.786;37.168;2022-09-09T04:03:19;100579.75;;;6.23;72.78
35619;BME280;21743;55.786;37.168;2022-09-09T04:05:48;100573.25;;;6.30;73.14
35619;BME280;21743;55.786;37.168;2022-09-09T04:08:15;100572.31;;;6.31;73.18
35619;BME280;21743;55.786;37.168;2022-09-09T04:10:42;100583.13;;;6.38;73.08
35619;BME280;21743;55.786;37.168;2022-09-09T04:13:11;100588.81;;;6.43;73.12
35619;BME280;21743;55.786;37.168;2022-09-09T04:15:38;100588.44;;;6.49;73.42
35619;BME280;21743;55.786;37.168;2022-09-09T04:18:05;100587.41;;;6.52;73.34
35619;BME280;21743;55.786;37.168;2022-09-09T04:20:32;100583.06;;;6.52;73.04
35619;BME280;21743;55.786;37.168;2022-09-09T04:22:59;100580.09;;;6.58;72.96
35619;BME280;21743;55.786;37.168;2022-09-09T04:25:25;100585.06;;;6.61;72.84
35619;BME280;21743;55.786;37.168;2022-09-09T04:27:54;100591.63;;;6.67;72.71
35619;BME280;21743;55.786;37.168;2022-09-09T04:30:21;100589.75;;;6.69;72.96
35619;BME280;21743;55.786;37.168;2022-09-09T04:32:47;100586.25;;;6.70;72.87
35619;BME280;21743;55.786;37.168;2022-09-09T04:35:13;100598.47;;;6.81;72.96
35619;BME280;21743;55.786;37.168;2022-09-09T04:37:39;100598.19;;;6.85;72.75
35619;BME280;21743;55.786;37.168;2022-09-09T04:40:05;100586.91;;;6.86;72.72
35619;BME280;21743;55.786;37.168;2022-09-09T04:42:36;100593.44;;;6.92;72.63
35619;BME280;21743;55.786;37.168;2022-09-09T04:45:03;100588.06;;;6.95;72.43
35619;BME280;21743;55.786;37.168;2022-09-09T04:47:29;100589.53;;;6.99;72.24
35619;BME280;21743;55.786;37.168;2022-09-09T04:49:55;100589.84;;;7.07;72.69
35619;BME280;21743;55.786;37.168;2022-09-09T04:52:22;100592.78;;;7.15;72.31
35619;BME280;21743;55.786;37.168;2022-09-09T04:54:48;100598.47;;;7.20;72.32
35619;BME280;21743;55.786;37.168;2022-09-09T04:57:14;100599.81;;;7.26;72.08
35619;BME280;21743;55.786;37.168;2022-09-09T04:59:40;100602.94;;;7.31;72.20
35619;BME280;21743;55.786;37.168;2022-09-09T05:02:06;100606.13;;;7.34;71.95
35619;BME280;21743;55.786;37.168;2022-09-09T05:04:32;100602.41;;;7.38;71.82
35619;BME280;21743;55.786;37.168;2022-09-09T05:06:59;100600.66;;;7.39;71.90
35619;BME280;21743;55.786;37.168;2022-09-09T05:09:25;100609.69;;;7.46;72.02
35619;BME280;21743;55.786;37.168;2022-09-09T05:11:51;100597.25;;;7.51;71.85
35619;BME280;21743;55.786;37.168;2022-09-09T05:14:30;100608.66;;;7.61;71.83
35619;BME280;21743;55.786;37.168;2022-09-09T05:16:58;100610.72;;;7.69;71.69
35619;BME280;21743;55.786;37.168;2022-09-09T05:19:26;100616.53;;;7.72;71.13
35619;BME280;21743;55.786;37.168;2022-09-09T05:21:53;100620.56;;;7.76;71.17
35619;BME280;21743;55.786;37.168;2022-09-09T05:24:25;100618.56;;;7.80;70.91
35619;BME280;21743;55.786;37.168;2022-09-09T05:26:53;100622.72;;;7.83;71.16
35619;BME280;21743;55.786;37.168;2022-09-09T05:29:19;100621.69;;;7.85;70.97
35619;BME280;21743;55.786;37.168;2022-09-09T05:31:45;100618.59;;;7.93;70.39
35619;BME280;21743;55.786;37.168;2022-09-09T05:34:15;100620.13;;;7.95;70.37
35619;BME280;21743;55.786;37.168;2022-09-09T05:36:40;100621.56;;;7.99;70.00
35619;BME280;21743;55.786;37.168;2022-09-09T05:39:07;100618.78;;;8.02;70.16
35619;BME280;21743;55.786;37.168;2022-09-09T05:41:34;100617.63;;;8.06;69.72
35619;BME280;21743;55.786;37.168;2022-09-09T05:44:02;100614.69;;;8.11;69.97
35619;BME280;21743;55.786;37.168;2022-09-09T05:46:29;100621.03;;;8.20;69.33
35619;BME280;21743;55.786;37.168;2022-09-09T05:48:55;100620.81;;;8.23;69.43
35619;BME280;21743;55.786;37.168;2022-09-09T05:51:28;100622.03;;;8.30;69.03
35619;BME280;21743;55.786;37.168;2022-09-09T05:53:57;100618.50;;;8.31;68.73
35619;BME280;21743;55.786;37.168;2022-09-09T05:56:29;100626.47;;;8.40;68.83
35619;BME280;21743;55.786;37.168;2022-09-09T05:58:57;100623.38;;;8.48;68.63
35619;BME280;21743;55.786;37.168;2022-09-09T06:01:41;100628.81;;;8.56;67.86
35619;BME280;21743;55.786;37.168;2022-09-09T06:04:13;100627.31;;;8.54;68.16
35619;BME280;21743;55.786;37.168;2022-09-09T06:06:40;100626.84;;;8.60;67.89
35619;BME280;21743;55.786;37.168;2022-09-09T06:09:14;100637.28;;;8.71;67.92
35619;BME280;21743;55.786;37.168;2022-09-09T06:11:42;100636.84;;;8.77;67.76
35619;BME280;21743;55.786;37.168;2022-09-09T06:14:09;100638.41;;;8.79;67.03
35619;BME280;21743;55.786;37.168;2022-09-09T06:16:37;100635.47;;;8.84;66.65
35619;BME280;21743;55.786;37.168;2022-09-09T06:19:05;100647.16;;;8.90;66.52
35619;BME280;21743;55.786;37.168;2022-09-09T06:21:34;100658.66;;;8.98;66.22
35619;BME280;21743;55.786;37.168;2022-09-09T06:24:06;100648.88;;;9.02;65.46
35619;BME280;21743;55.786;37.168;2022-09-09T06:26:35;100656.34;;;9.06;65.13
35619;BME280;21743;55.786;37.168;2022-09-09T06:29:02;100644.78;;;9.10;65.54
35619;BME280;21743;55.786;37.168;2022-09-09T06:31:31;100652.59;;;9.22;64.38
35619;BME280;21743;55.786;37.168;2022-09-09T06:34:07;100657.00;;;9.32;64.42
35619;BME280;21743;55.786;37.168;2022-09-09T06:36:37;100652.09;;;9.40;63.70
35619;BME280;21743;55.786;37.168;2022-09-09T06:39:03;100650.56;;;9.49;63.72
35619;BME280;21743;55.786;37.168;2022-09-09T06:41:32;100650.22;;;9.65;63.00
35619;BME280;21743;55.786;37.168;2022-09-09T06:44:00;100653.00;;;9.85;62.87
35619;BME280;21743;55.786;37.168;2022-09-09T06:46:40;100653.34;;;10.03;61.83
35619;BME280;21743;55.786;37.168;2022-09-09T06:49:08;100651.47;;;10.05;61.18
35619;BME280;21743;55.786;37.168;2022-09-09T06:51:36;100662.00;;;10.04;60.71
35619;BME280;21743;55.786;37.168;2022-09-09T06:54:03;100660.56;;;10.00;61.23
35619;BME280;21743;55.786;37.168;2022-09-09T06:56:40;100655.13;;;10.03;61.47
35619;BME280;21743;55.786;37.168;2022-09-09T06:59:12;100665.88;;;9.98;61.38
35619;BME280;21743;55.786;37.168;2022-09-09T07:01:41;100671.56;;;9.92;61.25
35619;BME280;21743;55.786;37.168;2022-09-09T07:04:10;100671.53;;;9.81;61.93
35619;BME280;21743;55.786;37.168;2022-09-09T07:06:41;100667.63;;;9.75;61.41
35619;BME280;21743;55.786;37.168;2022-09-09T07:09:15;100666.69;;;9.76;62.16
35619;BME280;21743;55.786;37.168;2022-09-09T07:11:49;100672.84;;;9.86;61.90
35619;BME280;21743;55.786;37.168;2022-09-09T07:14:19;100672.78;;;10.21;61.08
35619;BME280;21743;55.786;37.168;2022-09-09T07:16:48;100670.13;;;10.66;59.12
35619;BME280;21743;55.786;37.168;2022-09-09T07:19:16;100677.19;;;10.75;59.40
35619;BME280;21743;55.786;37.168;2022-09-09T07:21:43;100687.28;;;10.69;59.58
35619;BME280;21743;55.786;37.168;2022-09-09T07:24:12;100676.41;;;10.52;59.95
35619;BME280;21743;55.786;37.168;2022-09-09T07:26:40;100690.38;;;10.40;59.89
35619;BME280;21743;55.786;37.168;2022-09-09T07:29:07;100684.22;;;10.52;60.03
35619;BME280;21743;55.786;37.168;2022-09-09T07:31:36;100684.41;;;10.83;59.00
35619;BME280;21743;55.786;37.168;2022-09-09T07:34:05;100685.78;;;10.87;59.34
35619;BME280;21743;55.786;37.168;2022-09-09T07:36:34;100692.22;;;10.83;59.30
35619;BME280;21743;55.786;37.168;2022-09-09T07:39:04;100695.69;;;11.04;58.83
35619;BME280;21743;55.786;37.168;2022-09-09T07:44:08;100697.34;;;11.37;57.58
35619;BME280;21743;55.786;37.168;2022-09-09T07:46:35;100700.91;;;11.36;57.36
35619;BME280;21743;55.786;37.168;2022-09-09T07:49:02;100701.13;;;11.33;57.06
35619;BME280;21743;55.786;37.168;2022-09-09T07:51:39;100687.38;;;11.10;56.33
35619;BME280;21743;55.786;37.168;2022-09-09T07:54:09;100712.19;;;11.25;56.49
35619;BME280;21743;55.786;37.168;2022-09-09T07:56:39;100712.84;;;11.39;56.70
35619;BME280;21743;55.786;37.168;2022-09-09T07:59:06;100714.06;;;11.35;56.90
35619;BME280;21743;55.786;37.168;2022-09-09T08:01:45;100712.09;;;11.27;56.89
35619;BME280;21743;55.786;37.168;2022-09-09T08:04:16;100704.31;;;11.37;56.98
35619;BME280;21743;55.786;37.168;2022-09-09T08:06:46;100705.50;;;12.06;55.99
35619;BME280;21743;55.786;37.168;2022-09-09T08:09:14;100700.91;;;12.69;52.87
35619;BME280;21743;55.786;37.168;2022-09-09T08:11:41;100708.44;;;13.22;51.69
35619;BME280;21743;55.786;37.168;2022-09-09T08:14:08;100704.53;;;13.84;50.29
35619;BME280;21743;55.786;37.168;2022-09-09T08:16:38;100705.59;;;13.91;50.49
35619;BME280;21743;55.786;37.168;2022-09-09T08:19:05;100715.16;;;13.63;50.97
35619;BME280;21743;55.786;37.168;2022-09-09T08:21:36;100719.44;;;13.16;52.71
35619;BME280;21743;55.786;37.168;2022-09-09T08:24:04;100714.13;;;12.77;52.16
35619;BME280;21743;55.786;37.168;2022-09-09T08:26:35;100711.56;;;12.37;53.02
35619;BME280;21743;55.786;37.168;2022-09-09T08:29:04;100718.19;;;12.51;52.30
35619;BME280;21743;55.786;37.168;2022-09-09T08:31:34;100710.50;;;13.57;50.42
35619;BME280;21743;55.786;37.168;2022-09-09T08:34:01;100713.63;;;14.26;48.88
35619;BME280;21743;55.786;37.168;2022-09-09T08:36:32;100718.34;;;14.13;48.91
35619;BME280;21743;55.786;37.168;2022-09-09T08:39:00;100710.69;;;14.02;49.60
35619;BME280;21743;55.786;37.168;2022-09-09T08:52:54;100716.22;;;14.91;45.53
35619;BME280;21743;55.786;37.168;2022-09-09T08:58:34;100721.09;;;13.75;49.44
35619;BME280;21743;55.786;37.168;2022-09-09T09:04:13;100713.19;;;12.88;50.30
35619;BME280;21743;55.786;37.168;2022-09-09T09:07:04;100726.88;;;12.61;51.36
35619;BME280;21743;55.786;37.168;2022-09-09T09:12:41;100725.94;;;12.31;52.24
35619;BME280;21743;55.786;37.168;2022-09-09T09:15:23;100721.06;;;12.48;51.15
35619;BME280;21743;55.786;37.168;2022-09-09T09:17:51;100716.03;;;12.65;51.41
35619;BME280;21743;55.786;37.168;2022-09-09T09:20:23;100718.28;;;12.80;50.22
35619;BME280;21743;55.786;37.168;2022-09-09T09:22:54;100726.25;;;12.78;50.84
35619;BME280;21743;55.786;37.168;2022-09-09T09:25:27;100722.88;;;12.57;50.48
35619;BME280;21743;55.786;37.168;2022-09-09T09:30:40;100722.72;;;12.18;51.85
35619;BME280;21743;55.786;37.168;2022-09-09T09:33:26;100720.34;;;12.06;52.03
35619;BME280;21743;55.786;37.168;2022-09-09T09:35:53;100720.00;;;11.99;52.92
35619;BME280;21743;55.786;37.168;2022-09-09T09:38:23;100725.69;;;12.04;52.75
35619;BME280;21743;55.786;37.168;2022-09-09T09:40:54;100725.22;;;11.99;52.45
35619;BME280;21743;55.786;37.168;2022-09-09T09:45:57;100712.19;;;11.99;52.43
35619;BME280;21743;55.786;37.168;2022-09-09T09:48:25;100726.63;;;12.03;52.28
35619;BME280;21743;55.786;37.168;2022-09-09T09:53:28;100727.75;;;12.10;52.33
35619;BME280;21743;55.786;37.168;2022-09-09T09:56:06;100719.41;;;12.16;51.65
35619;BME280;21743;55.786;37.168;2022-09-09T09:58:54;100711.38;;;12.29;50.57
35619;BME280;21743;55.786;37.168;2022-09-09T10:01:27;100715.38;;;12.33;50.86
35619;BME280;21743;55.786;37.168;2022-09-09T10:03:58;100715.25;;;12.35;51.24
35619;BME280;21743;55.786;37.168;2022-09-09T10:06:32;100719.19;;;12.29;51.36
35619;BME280;21743;55.786;37.168;2022-09-09T10:08:59;100726.72;;;12.22;51.54
35619;BME280;21743;55.786;37.168;2022-09-09T10:15:15;100728.44;;;12.12;52.02
35619;BME280;21743;55.786;37.168;2022-09-09T10:22:35;100727.34;;;12.05;52.43
35619;BME280;21743;55.786;37.168;2022-09-09T10:25:21;100708.44;;;12.22;52.47
35619;BME280;21743;55.786;37.168;2022-09-09T10:36:13;100724.75;;;12.45;51.70
35619;BME280;21743;55.786;37.168;2022-09-09T10:38:52;100741.38;;;12.44;52.32
35619;BME280;21743;55.786;37.168;2022-09-09T10:44:12;100739.13;;;12.30;52.08
35619;BME280;21743;55.786;37.168;2022-09-09T11:03:35;100733.56;;;12.54;51.34
35619;BME280;21743;55.786;37.168;2022-09-09T11:05:44;100736.16;;;12.44;50.96
35619;BME280;21743;55.786;37.168;2022-09-09T11:08:23;100741.34;;;12.35;50.28
35619;BME280;21743;55.786;37.168;2022-09-09T11:13:44;100738.16;;;12.31;51.80
35619;BME280;21743;55.786;37.168;2022-09-09T11:16:30;100740.19;;;12.27;51.77
35619;BME280;21743;55.786;37.168;2022-09-09T11:19:04;100740.59;;;12.23;51.47
35619;BME280;21743;55.786;37.168;2022-09-09T11:21:39;100737.22;;;12.11;51.56
35619;BME280;21743;55.786;37.168;2022-09-09T11:24:13;100734.06;;;12.08;51.63
35619;BME280;21743;55.786;37.168;2022-09-09T11:26:45;100731.59;;;12.06;50.99
35619;BME280;21743;55.786;37.168;2022-09-09T11:32:27;100734.47;;;12.03;51.76
35619;BME280;21743;55.786;37.168;2022-09-09T11:40:28;100744.38;;;12.09;52.86
35619;BME280;21743;55.786;37.168;2022-09-09T11:43:29;100749.06;;;12.15;52.69
35619;BME280;21743;55.786;37.168;2022-09-09T11:46:00;100739.13;;;12.09;53.06
35619;BME280;21743;55.786;37.168;2022-09-09T11:48:34;100740.69;;;12.12;52.70
35619;BME280;21743;55.786;37.168;2022-09-09T11:56:43;100730.34;;;12.31;52.29
35619;BME280;21743;55.786;37.168;2022-09-09T11:59:24;100723.34;;;12.41;50.88
35619;BME280;21743;55.786;37.168;2022-09-09T12:02:00;100733.09;;;12.39;51.29
35619;BME280;21743;55.786;37.168;2022-09-09T12:07:05;100728.44;;;12.43;51.07
35619;BME280;21743;55.786;37.168;2022-09-09T12:09:53;100723.94;;;12.45;50.26
35619;BME280;21743;55.786;37.168;2022-09-09T12:15:00;100725.31;;;12.49;49.55
35619;BME280;21743;55.786;37.168;2022-09-09T12:17:30;100741.38;;;12.44;50.85
35619;BME280;21743;55.786;37.168;2022-09-09T12:20:11;100736.53;;;12.40;51.13
35619;BME280;21743;55.786;37.168;2022-09-09T12:22:41;100742.31;;;12.33;51.18
35619;BME280;21743;55.786;37.168;2022-09-09T12:30:36;100730.81;;;12.15;51.50
35619;BME280;21743;55.786;37.168;2022-09-09T12:33:16;100735.06;;;12.16;51.75
35619;BME280;21743;55.786;37.168;2022-09-09T12:35:44;100727.38;;;12.15;51.75
35619;BME280;21743;55.786;37.168;2022-09-09T12:38:41;100740.34;;;12.26;51.43
35619;BME280;21743;55.786;37.168;2022-09-09T12:41:25;100735.22;;;12.24;51.09
35619;BME280;21743;55.786;37.168;2022-09-09T12:43:51;100725.22;;;12.20;51.13
35619;BME280;21743;55.786;37.168;2022-09-09T12:46:42;100731.53;;;12.27;50.57
35619;BME280;21743;55.786;37.168;2022-09-09T12:49:34;100734.72;;;12.30;49.93
35619;BME280;21743;55.786;37.168;2022-09-09T12:52:02;100733.91;;;12.30;50.42
35619;BME280;21743;55.786;37.168;2022-09-09T12:54:33;100730.78;;;12.36;49.57
35619;BME280;21743;55.786;37.168;2022-09-09T12:57:00;100714.19;;;12.47;50.09
35619;BME280;21743;55.786;37.168;2022-09-09T12:59:38;100728.09;;;12.57;49.76
35619;BME280;21743;55.786;37.168;2022-09-09T13:02:24;100714.78;;;12.60;49.49
35619;BME280;21743;55.786;37.168;2022-09-09T13:04:51;100712.03;;;12.61;49.70
35619;BME280;21743;55.786;37.168;2022-09-09T13:07:20;100717.53;;;12.68;49.26
35619;BME280;21743;55.786;37.168;2022-09-09T13:09:48;100707.78;;;12.70;49.53
35619;BME280;21743;55.786;37.168;2022-09-09T13:12:17;100723.63;;;12.78;49.04
35619;BME280;21743;55.786;37.168;2022-09-09T13:14:46;100719.78;;;12.82;49.15
35619;BME280;21743;55.786;37.168;2022-09-09T13:17:32;100722.09;;;12.85;49.23
35619;BME280;21743;55.786;37.168;2022-09-09T13:19:57;100715.66;;;12.80;48.84
35619;BME280;21743;55.786;37.168;2022-09-09T13:22:27;100724.03;;;12.83;48.57
35619;BME280;21743;55.786;37.168;2022-09-09T13:25:13;100719.09;;;12.90;48.47
35619;BME280;21743;55.786;37.168;2022-09-09T13:27:53;100721.28;;;12.85;48.58
35619;BME280;21743;55.786;37.168;2022-09-09T13:30:24;100722.41;;;12.82;48.90
35619;BME280;21743;55.786;37.168;2022-09-09T13:35:54;100719.06;;;12.71;49.05
35619;BME280;21743;55.786;37.168;2022-09-09T13:38:20;100723.03;;;12.65;49.67
35619;BME280;21743;55.786;37.168;2022-09-09T13:41:18;100721.09;;;12.57;49.70
35619;BME280;21743;55.786;37.168;2022-09-09T13:43:47;100716.66;;;12.48;50.27
35619;BME280;21743;55.786;37.168;2022-09-09T13:46:39;100725.84;;;12.43;50.32
35619;BME280;21743;55.786;37.168;2022-09-09T13:51:40;100727.16;;;12.27;52.53
35619;BME280;21743;55.786;37.168;2022-09-09T13:54:12;100714.44;;;12.13;52.34
35619;BME280;21743;55.786;37.168;2022-09-09T13:56:39;100719.53;;;12.15;52.56
35619;BME280;21743;55.786;37.168;2022-09-09T13:59:10;100718.28;;;12.09;52.25
35619;BME280;21743;55.786;37.168;2022-09-09T14:01:36;100718.13;;;12.11;51.84
35619;BME280;21743;55.786;37.168;2022-09-09T14:04:03;100707.56;;;12.12;51.90
35619;BME280;21743;55.786;37.168;2022-09-09T14:06:29;100706.50;;;12.15;51.80
35619;BME280;21743;55.786;37.168;2022-09-09T14:08:55;100705.16;;;12.20;51.64
35619;BME280;21743;55.786;37.168;2022-09-09T14:11:21;100704.63;;;12.26;51.76
35619;BME280;21743;55.786;37.168;2022-09-09T14:13:48;100699.84;;;12.31;51.11
35619;BME280;21743;55.786;37.168;2022-09-09T14:16:16;100696.28;;;12.32;51.25
35619;BME280;21743;55.786;37.168;2022-09-09T14:18:43;100699.59;;;12.35;51.00
35619;BME280;21743;55.786;37.168;2022-09-09T14:21:10;100710.31;;;12.41;50.76
35619;BME280;21743;55.786;37.168;2022-09-09T14:23:37;100704.13;;;12.42;50.79
35619;BME280;21743;55.786;37.168;2022-09-09T14:26:04;100704.00;;;12.44;50.56
35619;BME280;21743;55.786;37.168;2022-09-09T14:28:30;100703.63;;;12.48;50.61
35619;BME280;21743;55.786;37.168;2022-09-09T14:30:59;100705.13;;;12.51;50.61
35619;BME280;21743;55.786;37.168;2022-09-09T14:33:25;100690.38;;;12.40;50.78
35619;BME280;21743;55.786;37.168;2022-09-09T14:36:02;100709.91;;;12.46;50.90
35619;BME280;21743;55.786;37.168;2022-09-09T14:38:30;100707.69;;;12.41;50.42
35619;BME280;21743;55.786;37.168;2022-09-09T14:40:56;100699.28;;;12.38;50.18
35619;BME280;21743;55.786;37.168;2022-09-09T14:43:24;100704.25;;;12.41;50.38
35619;BME280;21743;55.786;37.168;2022-09-09T14:45:50;100701.25;;;12.36;50.10
35619;BME280;21743;55.786;37.168;2022-09-09T14:48:17;100700.78;;;12.30;50.27
35619;BME280;21743;55.786;37.168;2022-09-09T14:50:43;100705.19;;;12.30;50.57
35619;BME280;21743;55.786;37.168;2022-09-09T14:53:09;100701.06;;;12.27;50.77
35619;BME280;21743;55.786;37.168;2022-09-09T14:55:36;100714.78;;;12.20;50.94
35619;BME280;21743;55.786;37.168;2022-09-09T14:58:04;100712.78;;;12.12;51.43
35619;BME280;21743;55.786;37.168;2022-09-09T15:00:29;100705.50;;;12.06;51.88
35619;BME280;21743;55.786;37.168;2022-09-09T15:02:56;100710.28;;;12.01;52.23
35619;BME280;21743;55.786;37.168;2022-09-09T15:05:22;100703.91;;;11.94;52.44
35619;BME280;21743;55.786;37.168;2022-09-09T15:07:48;100710.22;;;11.91;52.72
35619;BME280;21743;55.786;37.168;2022-09-09T15:10:14;100703.63;;;11.87;53.37
35619;BME280;21743;55.786;37.168;2022-09-09T15:12:39;100711.00;;;11.82;53.43